KMLI/MLI METAR and TAF weather

Enter ICAO airport designator
Station Type Date Time Source
KMLI METAR 2020/11/27 14:52 UTC NOAA

KMLI 271452Z 32009KT 2SM BR OVC005 02/00 A3016 RMK AO2 SFC VIS 5 SLP217 T00220000 53015


Station Type Date Time Source
KMLI Decoded METAR 2020/11/27 14:52 UTC NOAA

MOLINE QUAD-CITY AIRPORT, IL, United States (KMLI) 41-27N 90-31W 184M
Nov 27, 2020 - 09:52 AM EST / 2020.11.27 1452 UTC
Wind: from the NW (320 degrees) at 10 MPH (9 KT):0
Visibility: 2 mile(s):0
Sky conditions: overcast
Weather: mist
Temperature: 36.0 F (2.2 C)
Dew Point: 32.0 F (0.0 C)
Relative Humidity: 85%
Pressure (altimeter): 30.16 in. Hg (1021 hPa)
Pressure tendency: 0.04 inches (1.5 hPa) higher than three hours ago
ob: KMLI 271452Z 32009KT 2SM BR OVC005 02/00 A3016 RMK AO2 SFC VIS 5 SLP217 T00220000 53015
cycle: 15

Station Type Date Time Source
KMLI TAF 2020/11/27 13:03 UTC NOAA

TAF
AMD KMLI 271300Z 2713/2812 VRB04KT P6SM OVC006
TEMPO 2713/2715 3SM BR OVC004
FM271800 31006KT P6SM SCT100

Example: see airport list